Time;durP1;ratioP1;P1;durP2;ratioP2;P2;SDS_P1;SDS_P2;PMS_P1;PMS_P2;Temp;Humidity;BMP_temperature;BMP_pressure;BME280_temperature;BME280_humidity;BME280_pressure;Samples;Min_cycle;Max_cycle;Signal;HPM_P1;HPM_P2
2023/04/01 00:00:58;;;;;;;10.70;8.70;;;10.10;99.90;;;;;;5075144;28;20325;-79
2023/04/01 00:03:26;;;;;;;11.10;8.47;;;10.00;99.90;;;;;;5074840;28;20044;-79
2023/04/01 00:05:53;;;;;;;10.37;8.40;;;10.10;99.90;;;;;;5075164;28;20286;-79
2023/04/01 00:08:19;;;;;;;10.60;9.13;;;10.10;99.90;;;;;;5075065;28;20281;-80
2023/04/01 00:10:45;;;;;;;10.67;8.47;;;10.00;99.90;;;;;;5074191;28;20283;-80
2023/04/01 00:13:11;;;;;;;12.00;9.70;;;10.00;99.90;;;;;;5075005;28;20504;-80
2023/04/01 00:15:37;;;;;;;12.47;9.97;;;10.10;99.90;;;;;;5074584;28;20290;-80
2023/04/01 00:18:04;;;;;;;11.47;9.50;;;10.10;99.90;;;;;;5074960;28;20612;-80
2023/04/01 00:20:30;;;;;;;12.20;9.33;;;10.10;99.90;;;;;;5074644;28;20364;-80
2023/04/01 00:22:56;;;;;;;9.17;7.30;;;10.10;99.90;;;;;;5075065;28;20320;-80
2023/04/01 00:25:22;;;;;;;8.30;7.30;;;10.10;99.90;;;;;;5074696;28;20279;-80
2023/04/01 00:27:49;;;;;;;9.20;8.07;;;10.00;99.90;;;;;;5073443;28;20178;-80
2023/04/01 00:30:15;;;;;;;9.77;7.10;;;10.00;99.90;;;;;;5073495;28;20049;-80
2023/04/01 00:32:40;;;;;;;10.03;8.03;;;10.00;99.90;;;;;;5074386;28;20365;-80
2023/04/01 00:35:07;;;;;;;10.47;8.10;;;10.00;99.90;;;;;;5073452;28;20394;-79
2023/04/01 00:37:36;;;;;;;12.47;8.23;;;10.00;99.90;;;;;;5074351;28;20056;-80
2023/04/01 00:40:03;;;;;;;9.57;8.23;;;10.00;99.90;;;;;;5073414;28;20291;-80
2023/04/01 00:42:29;;;;;;;10.60;9.30;;;9.90;99.90;;;;;;5074230;28;20283;-81
2023/04/01 00:44:55;;;;;;;12.13;9.67;;;9.90;99.90;;;;;;5074289;28;20802;-81
2023/04/01 00:47:25;;;;;;;12.83;9.83;;;10.00;99.90;;;;;;5074291;28;20156;-80
2023/04/01 00:49:53;;;;;;;12.87;9.83;;;10.00;99.90;;;;;;5073921;28;20689;-80
2023/04/01 00:52:23;;;;;;;13.20;9.73;;;10.00;99.90;;;;;;5073222;28;20374;-80
2023/04/01 00:54:54;;;;;;;12.37;10.20;;;10.00;99.90;;;;;;5073820;28;20357;-81
2023/04/01 00:57:32;;;;;;;12.77;10.40;;;10.00;99.90;;;;;;5074020;28;20353;-80
2023/04/01 00:59:59;;;;;;;13.27;9.87;;;10.00;99.90;;;;;;5073301;28;20290;-80
2023/04/01 01:02:24;;;;;;;13.80;9.97;;;10.00;99.90;;;;;;5073363;28;20278;-80
2023/04/01 01:04:50;;;;;;;13.83;9.80;;;10.00;99.90;;;;;;5073711;28;20279;-81
2023/04/01 01:07:35;;;;;;;12.90;10.07;;;10.00;99.90;;;;;;5072690;28;20538;-81
2023/04/01 01:10:19;;;;;;;12.07;9.73;;;10.00;99.90;;;;;;5073330;28;20763;-81
2023/04/01 01:12:49;;;;;;;13.27;9.70;;;10.00;99.90;;;;;;5073615;28;20762;-81
2023/04/01 01:15:35;;;;;;;13.13;10.80;;;10.00;99.90;;;;;;5074144;28;20658;-81
2023/04/01 01:18:24;;;;;;;12.47;9.97;;;10.00;99.90;;;;;;5073733;28;20294;-80
2023/04/01 01:21:26;;;;;;;11.97;10.47;;;10.00;99.90;;;;;;5073262;28;20283;-80
2023/04/01 01:24:33;;;;;;;12.03;10.00;;;10.00;99.90;;;;;;5073378;28;20294;-80
2023/04/01 01:27:03;;;;;;;;;;;10.00;99.90;;;;;;5074284;28;20359;-80
2023/04/01 01:29:44;;;;;;;11.50;9.67;;;10.00;99.90;;;;;;5073574;28;19920;-80
2023/04/01 01:32:32;;;;;;;11.90;10.10;;;10.00;99.90;;;;;;5073563;28;20294;-80
2023/04/01 01:35:19;;;;;;;13.00;9.77;;;9.90;99.90;;;;;;5072428;28;20779;-80
2023/04/01 01:37:46;;;;;;;16.67;10.53;;;10.00;99.90;;;;;;5073076;28;20287;-80
2023/04/01 01:40:14;;;;;;;12.53;10.10;;;10.00;99.90;;;;;;5072450;28;20291;-80
2023/04/01 01:42:45;;;;;;;13.77;10.10;;;10.00;99.90;;;;;;5073096;28;20281;-81
2023/04/01 01:45:14;;;;;;;15.73;10.37;;;10.00;99.90;;;;;;5073348;28;20278;-80
2023/04/01 01:47:42;;;;;;;12.47;10.17;;;9.90;99.90;;;;;;5072878;28;20287;-81
2023/04/01 01:50:10;;;;;;;16.13;10.30;;;10.00;99.90;;;;;;5072719;28;20293;-81
2023/04/01 01:52:36;;;;;;;13.80;10.30;;;10.00;99.90;;;;;;5072857;28;20287;-80
2023/04/01 01:55:01;;;;;;;15.73;10.17;;;10.00;99.90;;;;;;5072832;28;20305;-80
2023/04/01 01:57:34;;;;;;;13.63;9.83;;;10.00;99.90;;;;;;5073095;28;20048;-79
2023/04/01 02:00:12;;;;;;;12.73;10.20;;;10.00;99.90;;;;;;5073338;28;20079;-79
2023/04/01 02:02:42;;;;;;;10.83;8.87;;;10.00;99.90;;;;;;5072848;28;20357;-80
2023/04/01 02:05:14;;;;;;;11.77;8.80;;;10.00;99.90;;;;;;5073030;28;20313;-79
2023/04/01 02:07:46;;;;;;;12.87;9.30;;;10.00;99.90;;;;;;5072513;28;20669;-79
2023/04/01 02:10:13;;;;;;;12.03;7.80;;;10.00;99.90;;;;;;5073244;28;20275;-79
2023/04/01 02:12:40;;;;;;;11.33;7.30;;;9.90;99.90;;;;;;5071349;28;20315;-79
2023/04/01 02:15:09;;;;;;;10.60;7.43;;;10.00;99.90;;;;;;5072833;28;20347;-79
2023/04/01 02:17:39;;;;;;;12.53;7.93;;;10.00;99.90;;;;;;5073025;28;20274;-80
2023/04/01 02:20:16;;;;;;;9.77;6.63;;;9.90;99.90;;;;;;5072951;28;20290;-79
2023/04/01 02:22:53;;;;;;;12.23;7.20;;;9.90;99.90;;;;;;5072985;28;20291;-79
2023/04/01 02:25:24;;;;;;;10.53;7.70;;;9.90;99.90;;;;;;5072930;28;20266;-79
2023/04/01 02:27:51;;;;;;;13.70;8.00;;;9.90;99.90;;;;;;5072335;28;20763;-79
2023/04/01 02:30:18;;;;;;;8.13;6.20;;;9.90;99.90;;;;;;5072872;28;20374;-79
2023/04/01 02:32:45;;;;;;;9.43;5.23;;;9.90;99.90;;;;;;5071616;28;20286;-79
2023/04/01 02:35:13;;;;;;;6.97;4.67;;;9.90;99.90;;;;;;5072633;28;20404;-79
2023/04/01 02:37:42;;;;;;;6.60;4.80;;;9.90;99.90;;;;;;5072614;28;20279;-80
2023/04/01 02:40:13;;;;;;;5.03;3.50;;;9.90;99.90;;;;;;5071908;28;20424;-80
2023/04/01 02:42:39;;;;;;;5.53;3.97;;;9.80;99.90;;;;;;5072362;28;20758;-80
2023/04/01 02:45:06;;;;;;;5.90;3.53;;;9.80;99.90;;;;;;5072596;28;20286;-80
2023/04/01 02:47:32;;;;;;;5.73;3.60;;;9.80;99.90;;;;;;5072721;28;20052;-80
2023/04/01 02:49:58;;;;;;;6.40;3.77;;;9.80;99.90;;;;;;5072377;28;20283;-80
2023/04/01 02:52:28;;;;;;;7.30;4.90;;;9.80;99.90;;;;;;5071490;28;20491;-80
2023/04/01 02:54:55;;;;;;;7.80;5.63;;;9.80;99.90;;;;;;5072141;28;20723;-80
2023/04/01 02:57:21;;;;;;;10.80;7.73;;;9.80;99.90;;;;;;5072521;28;21024;-80
2023/04/01 02:59:46;;;;;;;12.57;8.30;;;9.80;99.90;;;;;;5072260;28;20336;-81
2023/04/01 03:02:13;;;;;;;14.50;9.87;;;9.80;99.90;;;;;;5072430;28;20283;-80
2023/04/01 03:04:39;;;;;;;14.27;10.77;;;9.80;99.90;;;;;;5072506;28;20040;-80
2023/04/01 03:07:04;;;;;;;15.23;11.80;;;9.80;99.90;;;;;;5071209;28;20329;-80
2023/04/01 03:09:30;;;;;;;15.70;11.17;;;9.80;99.90;;;;;;5072137;28;20314;-80
2023/04/01 03:11:56;;;;;;;13.10;10.40;;;9.80;99.90;;;;;;5072145;28;20041;-80
2023/04/01 03:14:22;;;;;;;15.03;11.03;;;9.80;99.90;;;;;;5072385;28;20098;-80
2023/04/01 03:16:48;;;;;;;15.53;10.90;;;9.80;99.90;;;;;;5072038;28;20061;-80
2023/04/01 03:19:13;;;;;;;12.40;10.37;;;9.80;99.90;;;;;;5072540;28;20045;-80
2023/04/01 03:21:39;;;;;;;16.00;10.70;;;9.80;99.90;;;;;;5071912;28;20083;-80
2023/04/01 03:24:06;;;;;;;14.30;11.73;;;9.80;99.90;;;;;;5071478;28;20057;-80
2023/04/01 03:26:31;;;;;;;16.30;12.67;;;9.80;99.90;;;;;;5076103;28;20109;-80
2023/04/01 03:28:57;;;;;;;17.23;12.00;;;9.80;99.90;;;;;;5075591;28;20709;-80
2023/04/01 03:31:24;;;;;;;15.93;11.50;;;9.90;99.90;;;;;;5076106;28;20037;-80
2023/04/01 03:33:50;;;;;;;17.23;13.37;;;9.80;99.90;;;;;;5075573;28;20416;-80
2023/04/01 03:36:16;;;;;;;15.73;12.77;;;9.80;99.90;;;;;;5074427;28;20311;-80
2023/04/01 03:38:42;;;;;;;17.57;13.27;;;9.80;99.90;;;;;;5075701;28;20048;-81
2023/04/01 03:41:15;;;;;;;16.63;13.67;;;9.80;99.90;;;;;;5074203;28;20048;-80
2023/04/01 03:43:41;;;;;;;18.10;13.00;;;9.80;99.90;;;;;;5075744;28;20274;-80
2023/04/01 03:46:06;;;;;;;20.30;13.97;;;9.80;99.90;;;;;;5075224;28;20666;-80
2023/04/01 03:48:32;;;;;;;19.80;13.47;;;9.80;99.90;;;;;;5075654;28;20052;-80
2023/04/01 03:50:58;;;;;;;20.40;13.70;;;9.80;99.90;;;;;;5075142;28;20094;-80
2023/04/01 03:53:24;;;;;;;23.67;14.17;;;9.80;99.90;;;;;;5075468;28;20037;-80
2023/04/01 03:55:51;;;;;;;19.87;13.27;;;9.90;99.90;;;;;;5075035;28;20044;-80
2023/04/01 03:58:17;;;;;;;17.97;13.57;;;9.90;99.90;;;;;;5074439;28;20271;-80
2023/04/01 04:00:43;;;;;;;18.90;13.33;;;9.80;99.90;;;;;;5074206;28;20295;-80
2023/04/01 04:03:09;;;;;;;17.83;13.80;;;9.80;99.90;;;;;;5074944;28;20432;-80
2023/04/01 04:05:35;;;;;;;16.30;12.97;;;9.80;99.90;;;;;;5075156;28;20330;-79
2023/04/01 04:08:01;;;;;;;19.30;13.43;;;9.80;99.90;;;;;;5074836;28;20045;-80
2023/04/01 04:10:28;;;;;;;20.17;13.23;;;9.80;99.90;;;;;;5057433;28;20389;-79
2023/04/01 04:12:55;;;;;;;18.40;12.97;;;9.90;99.90;;;;;;5074812;28;20290;-80
2023/04/01 04:15:20;;;;;;;18.90;13.30;;;9.80;99.90;;;;;;5075193;28;20299;-80
2023/04/01 04:17:47;;;;;;;20.63;13.93;;;9.80;99.90;;;;;;5075084;28;20382;-79
2023/04/01 04:20:13;;;;;;;17.90;12.87;;;9.80;99.90;;;;;;5073713;28;20066;-79
2023/04/01 04:22:39;;;;;;;19.03;13.10;;;9.80;99.90;;;;;;5056896;28;20299;-79
2023/04/01 04:25:05;;;;;;;19.20;14.70;;;9.80;99.90;;;;;;5074351;28;20275;-79
2023/04/01 04:27:31;;;;;;;18.90;13.63;;;9.80;99.90;;;;;;5074860;28;20352;-79
2023/04/01 04:29:56;;;;;;;22.23;14.07;;;9.80;99.90;;;;;;5040240;28;20763;-79
2023/04/01 04:32:22;;;;;;;19.70;13.67;;;9.80;99.90;;;;;;5074610;28;20076;-80
2023/04/01 04:34:48;;;;;;;18.63;13.87;;;9.80;99.90;;;;;;5074377;28;20388;-79
2023/04/01 04:37:14;;;;;;;20.83;14.40;;;9.90;99.90;;;;;;5073330;28;20040;-79
2023/04/01 04:39:39;;;;;;;19.80;13.77;;;9.80;99.90;;;;;;5073593;28;20358;-79
2023/04/01 04:42:06;;;;;;;22.53;15.63;;;9.80;99.90;;;;;;5073906;28;20044;-79
2023/04/01 04:44:31;;;;;;;19.87;14.03;;;9.80;99.90;;;;;;5074378;28;20041;-78
2023/04/01 04:46:57;;;;;;;23.50;14.90;;;9.80;99.90;;;;;;5073275;28;20297;-79
2023/04/01 04:49:23;;;;;;;20.23;14.37;;;9.80;99.90;;;;;;5074301;28;20086;-78
2023/04/01 04:51:49;;;;;;;23.23;15.67;;;9.80;99.90;;;;;;5074500;28;20091;-79
2023/04/01 04:54:15;;;;;;;21.83;15.40;;;9.80;99.90;;;;;;5072666;28;20048;-79
2023/04/01 04:56:41;;;;;;;20.50;14.77;;;9.80;99.90;;;;;;5073186;28;20342;-79
2023/04/01 04:59:06;;;;;;;23.93;16.00;;;9.80;99.90;;;;;;5073927;28;20076;-80
2023/04/01 05:01:33;;;;;;;25.83;16.83;;;9.90;99.90;;;;;;5074331;28;20503;-79
2023/04/01 05:03:59;;;;;;;26.67;16.13;;;9.80;99.90;;;;;;5072690;28;20141;-80
2023/04/01 05:06:29;;;;;;;30.70;17.73;;;9.80;99.90;;;;;;5073981;28;20271;-79
2023/04/01 05:08:56;;;;;;;24.07;16.73;;;9.90;99.90;;;;;;5072703;28;20619;-79
2023/04/01 05:11:22;;;;;;;27.53;16.60;;;9.90;99.90;;;;;;5073877;28;20294;-79
2023/04/01 05:13:48;;;;;;;26.30;17.73;;;9.80;99.90;;;;;;5073954;28;20282;-79
2023/04/01 05:16:16;;;;;;;29.90;18.57;;;9.80;99.90;;;;;;5073223;28;20476;-79
2023/04/01 05:18:42;;;;;;;27.13;18.13;;;9.80;99.90;;;;;;5073738;28;20048;-79
2023/04/01 05:21:10;;;;;;;31.50;18.00;;;9.80;99.90;;;;;;5073289;28;20341;-79
2023/04/01 05:23:36;;;;;;;25.83;17.60;;;9.80;99.90;;;;;;5073789;28;20677;-79
2023/04/01 05:26:12;;;;;;;25.80;17.57;;;9.80;99.90;;;;;;5073342;28;20278;-79
2023/04/01 05:28:39;;;;;;;27.93;18.03;;;9.80;99.90;;;;;;5073841;28;20060;-79
2023/04/01 05:31:05;;;;;;;32.13;18.50;;;9.80;99.90;;;;;;5073353;28;20274;-78
2023/04/01 05:33:32;;;;;;;27.37;18.43;;;9.80;99.90;;;;;;5072483;28;20786;-79
2023/04/01 05:36:09;;;;;;;29.93;17.83;;;9.80;99.90;;;;;;5073202;28;20698;-79
2023/04/01 05:38:35;;;;;;;26.10;17.23;;;9.80;99.90;;;;;;5073437;28;20279;-80
2023/04/01 05:41:02;;;;;;;32.80;19.40;;;9.80;99.90;;;;;;5071721;28;20298;-80
2023/04/01 05:43:29;;;;;;;31.63;19.27;;;9.80;99.90;;;;;;5072218;28;20045;-80
2023/04/01 05:45:55;;;;;;;31.03;20.07;;;9.80;99.90;;;;;;5073281;28;20279;-80
2023/04/01 05:48:21;;;;;;;29.97;18.37;;;9.80;99.90;;;;;;5071079;28;20322;-81
2023/04/01 05:50:47;;;;;;;33.97;19.27;;;9.80;99.90;;;;;;5078146;28;20310;-80
2023/04/01 05:53:12;;;;;;;30.77;18.17;;;9.80;99.90;;;;;;5092717;28;20401;-80
2023/04/01 05:55:38;;;;;;;36.67;20.80;;;9.80;99.90;;;;;;5093310;28;20047;-81
2023/04/01 05:58:04;;;;;;;33.47;20.37;;;9.80;99.90;;;;;;5092114;28;20051;-80
2023/04/01 06:00:30;;;;;;;34.27;21.23;;;9.80;99.90;;;;;;5093343;28;20067;-81
2023/04/01 06:02:59;;;;;;;30.40;20.20;;;9.80;99.90;;;;;;5093269;28;20278;-81
2023/04/01 06:05:28;;;;;;;31.63;20.30;;;9.80;99.90;;;;;;5093017;28;20040;-81
2023/04/01 06:08:05;;;;;;;36.13;20.77;;;9.90;99.90;;;;;;5093213;28;20390;-81
2023/04/01 06:10:40;;;;;;;30.50;20.30;;;9.90;99.90;;;;;;5092461;28;20374;-81
2023/04/01 06:13:28;;;;;;;32.85;21.55;;;9.90;99.90;;;;;;5091701;28;20290;-81
2023/04/01 06:16:19;;;;;;;40.83;22.10;;;9.80;99.90;;;;;;5052980;28;20051;-81
2023/04/01 06:19:10;;;;;;;44.37;21.63;;;9.80;99.90;;;;;;5093086;28;20372;-81
2023/04/01 06:22:23;;;;;;;39.73;22.17;;;9.80;99.90;;;;;;5091816;28;20646;-82
2023/04/01 06:25:21;;;;;;;42.17;23.43;;;9.90;99.90;;;;;;5092002;28;20263;-81
2023/04/01 06:28:25;;;;;;;38.40;21.67;;;9.90;99.90;;;;;;5086758;28;20317;-82
2023/04/01 06:31:38;;;;;;;36.47;20.43;;;9.90;99.90;;;;;;5093075;28;20304;-82
2023/04/01 06:34:41;;;;;;;42.73;22.13;;;9.90;99.90;;;;;;5067918;28;20282;-82
2023/04/01 06:37:15;;;;;;;40.20;20.37;;;9.90;99.90;;;;;;5075052;28;20294;-81
2023/04/01 06:40:18;;;;;;;30.88;17.75;;;9.90;99.90;;;;;;5091725;28;20289;-81
2023/04/01 06:43:01;;;;;;;30.37;17.07;;;10.00;99.90;;;;;;5091736;28;20044;-81
2023/04/01 06:45:27;;;;;;;29.57;18.23;;;10.00;99.90;;;;;;5092707;28;20742;-81
2023/04/01 06:48:01;;;;;;;25.67;16.87;;;9.90;99.90;;;;;;5093086;28;20312;-81
2023/04/01 06:50:36;;;;;;;32.58;18.38;;;10.00;99.90;;;;;;5092667;28;20116;-81
2023/04/01 06:53:23;;;;;;;31.48;17.70;;;10.00;99.90;;;;;;5093065;28;20052;-81
2023/04/01 06:56:11;;;;;;;23.77;16.47;;;10.00;99.90;;;;;;5092831;28;20048;-81
2023/04/01 06:58:53;;;;;;;27.83;16.43;;;10.00;99.90;;;;;;5093256;28;20625;-80
2023/04/01 07:01:29;;;;;;;29.07;16.40;;;10.00;99.90;;;;;;5096527;28;20320;-80
2023/04/01 07:04:17;;;;;;;30.03;16.40;;;10.00;99.90;;;;;;5095771;28;20294;-79
2023/04/01 07:07:21;;;;;;;21.80;13.83;;;10.00;99.90;;;;;;5095299;28;20282;-80
2023/04/01 07:09:53;;;;;;;17.80;12.07;;;10.10;99.90;;;;;;5096624;28;20310;-79
2023/04/01 07:12:36;;;;;;;20.87;12.90;;;10.10;99.90;;;;;;5096324;28;20270;-78
2023/04/01 07:15:26;;;;;;;23.70;12.57;;;10.10;99.90;;;;;;5096409;28;20382;-78
2023/04/01 07:18:24;;;;;;;18.87;12.17;;;10.00;99.90;;;;;;5095704;28;20851;-79
2023/04/01 07:20:53;;;;;;;18.97;12.07;;;10.00;99.90;;;;;;5088667;28;20286;-78
2023/04/01 07:23:31;;;;;;;18.40;11.73;;;10.00;99.90;;;;;;5094753;28;20754;-79
2023/04/01 07:26:03;;;;;;;21.43;12.10;;;10.00;99.90;;;;;;5095404;28;20298;-79
2023/04/01 07:28:33;;;;;;;23.57;12.57;;;10.00;99.90;;;;;;5096023;28;20285;-79
2023/04/01 07:31:30;;;;;;;23.70;15.43;;;10.00;99.90;;;;;;5096233;28;20274;-79
2023/04/01 07:34:12;;;;;;;25.90;16.27;;;10.00;99.90;;;;;;5093813;28;20282;-81
2023/04/01 07:36:52;;;;;;;23.57;15.13;;;10.00;99.90;;;;;;5095911;28;20286;-81
2023/04/01 07:39:32;;;;;;;24.37;15.27;;;10.00;99.90;;;;;;5094499;28;20313;-79
2023/04/01 07:42:47;;;;;;;32.07;20.63;;;10.00;99.90;;;;;;5095857;28;20278;-79
2023/04/01 07:45:51;;;;;;;26.43;16.73;;;10.00;99.90;;;;;;5095476;28;20282;-78
2023/04/01 07:48:17;;;;;;;26.50;16.53;;;10.10;99.90;;;;;;5071812;28;20665;-77
2023/04/01 07:51:01;;;;;;;26.60;17.30;;;10.20;99.90;;;;;;5095730;28;20287;-77
2023/04/01 07:54:00;;;;;;;22.13;16.97;;;10.30;99.90;;;;;;5095660;28;20082;-78
2023/04/01 07:56:32;;;;;;;28.50;18.20;;;10.40;99.90;;;;;;5095699;28;20439;-79
2023/04/01 07:59:17;;;;;;;32.67;20.20;;;10.40;99.90;;;;;;5095618;28;20286;-77
2023/04/01 08:01:52;;;;;;;29.00;19.05;;;10.40;99.90;;;;;;5095207;28;20278;-76
2023/04/01 08:04:40;;;;;;;31.90;20.65;;;10.40;99.90;;;;;;5095255;28;20055;-77
2023/04/01 08:07:45;;;;;;;30.27;20.50;;;10.40;99.90;;;;;;5077233;28;20048;-76
2023/04/01 08:10:20;;;;;;;25.47;18.57;;;10.50;99.90;;;;;;5080106;28;20290;-76
2023/04/01 08:13:13;;;;;;;26.25;19.48;;;10.50;99.90;;;;;;5095433;28;20634;-77
2023/04/01 08:15:52;;;;;;;24.67;18.27;;;10.60;99.90;;;;;;5094978;28;20173;-76
2023/04/01 08:18:27;;;;;;;22.37;19.57;;;10.60;99.90;;;;;;5095014;28;20306;-84
2023/04/01 08:21:00;;;;;;;24.02;19.63;;;10.60;99.90;;;;;;5094938;28;20278;-76
2023/04/01 08:23:32;;;;;;;22.83;19.20;;;10.70;99.90;;;;;;5094672;28;20127;-76
2023/04/01 08:26:10;;;;;;;23.47;19.23;;;10.70;99.90;;;;;;5095071;28;20310;-75
2023/04/01 08:28:54;;;;;;;23.80;18.73;;;10.70;99.90;;;;;;5093577;28;20282;-75
2023/04/01 08:31:25;;;;;;;23.23;18.10;;;10.70;99.90;;;;;;5093895;28;20371;-84
2023/04/01 08:33:54;;;;;;;19.73;17.63;;;10.70;99.90;;;;;;5094012;28;20286;-75
2023/04/01 08:36:37;;;;;;;21.37;17.37;;;10.80;99.90;;;;;;5094507;28;20337;-84
2023/04/01 08:39:16;;;;;;;18.17;16.13;;;10.80;99.90;;;;;;5094819;28;20314;-75
2023/04/01 08:42:12;;;;;;;19.50;17.40;;;10.80;99.90;;;;;;5094498;28;20300;-75
2023/04/01 08:45:18;;;;;;;17.07;15.27;;;10.90;99.90;;;;;;5094635;28;20278;-76
2023/04/01 08:47:50;;;;;;;14.93;13.18;;;10.90;99.90;;;;;;5076728;28;20337;-76
2023/04/01 08:50:36;;;;;;;18.90;16.07;;;10.90;99.90;;;;;;5094552;28;20055;-76
2023/04/01 08:53:27;;;;;;;18.43;16.53;;;10.90;99.90;;;;;;5094644;28;20323;-75
2023/04/01 08:56:17;;;;;;;17.93;16.13;;;10.90;99.90;;;;;;5094469;28;20294;-76
2023/04/01 08:58:54;;;;;;;21.53;17.27;;;11.00;99.90;;;;;;5094240;28;20853;-75
2023/04/01 09:01:32;;;;;;;18.57;16.67;;;11.00;99.90;;;;;;5094498;28;20278;-75
2023/04/01 09:04:22;;;;;;;18.67;16.50;;;11.00;99.90;;;;;;5092334;28;20290;-77
2023/04/01 09:07:25;;;;;;;19.60;17.43;;;11.00;99.90;;;;;;5093422;28;20746;-75
2023/04/01 09:10:16;;;;;;;18.37;16.23;;;11.00;99.90;;;;;;5026101;28;20298;-78
2023/04/01 09:13:01;;;;;;;20.43;17.13;;;;;;;;;;5092619;28;20359;-77
2023/04/01 09:16:00;;;;;;;18.85;16.48;;;11.10;99.90;;;;;;5093541;28;20322;-77
2023/04/01 09:18:35;;;;;;;16.47;14.77;;;11.10;99.90;;;;;;5093850;28;20044;-87
2023/04/01 09:21:15;;;;;;;14.63;13.17;;;11.10;99.90;;;;;;5092704;28;20296;-81
2023/04/01 09:23:54;;;;;;;14.90;13.33;;;11.10;99.90;;;;;;5093587;28;20366;-76
2023/04/01 09:26:57;;;;;;;15.20;13.20;;;11.00;99.90;;;;;;5094111;28;20317;-75
2023/04/01 09:30:06;;;;;;;18.80;14.37;;;11.00;99.90;;;;;;5093597;28;20778;-75
2023/04/01 09:32:52;;;;;;;16.40;12.10;;;10.90;99.90;;;;;;5093307;28;20337;-76
2023/04/01 09:35:37;;;;;;;16.10;11.40;;;10.90;99.90;;;;;;5088833;28;20298;-76
2023/04/01 09:38:19;;;;;;;13.47;10.00;;;10.90;99.90;;;;;;5090865;28;20298;-75
2023/04/01 09:40:56;;;;;;;12.80;9.80;;;10.80;99.90;;;;;;5090767;28;20367;-77
2023/04/01 09:43:26;;;;;;;14.33;9.83;;;10.80;99.90;;;;;;5092719;28;20317;-84
2023/04/01 09:46:45;;;;;;;14.17;10.53;;;10.70;99.90;;;;;;5074333;28;20786;-77
2023/04/01 09:49:29;;;;;;;13.43;11.20;;;10.60;99.90;;;;;;5030277;28;20917;-75
2023/04/01 09:52:25;;;;;;;19.00;11.80;;;10.60;99.90;;;;;;5086780;28;20289;-78
2023/04/01 10:00:31;;;;;;;15.53;10.63;;;10.60;99.90;;;;;;4974221;28;20291;-74
2023/04/01 10:03:21;;;;;;;12.17;8.57;;;10.60;99.90;;;;;;4961415;28;20698;-71
2023/04/01 10:06:00;;;;;;;12.40;9.40;;;10.60;99.90;;;;;;4961481;28;20798;-70
2023/04/01 10:09:13;;;;;;;11.67;9.07;;;10.60;99.90;;;;;;4959709;28;20821;-70
2023/04/01 10:12:03;;;;;;;11.27;8.73;;;10.60;99.90;;;;;;4959666;28;20760;-71
2023/04/01 10:15:14;;;;;;;12.30;8.80;;;10.50;99.90;;;;;;4959142;28;20639;-72
2023/04/01 10:18:16;;;;;;;14.13;9.93;;;10.50;99.90;;;;;;4959068;28;20345;-71
2023/04/01 10:21:19;;;;;;;11.73;9.00;;;10.40;99.90;;;;;;4958134;28;20757;-72
2023/04/01 10:24:13;;;;;;;12.10;8.97;;;10.40;99.90;;;;;;4958054;28;20729;-69
2023/04/01 10:27:18;;;;;;;11.55;8.73;;;10.40;99.90;;;;;;4958186;28;20304;-70
2023/04/01 10:30:25;;;;;;;8.93;7.17;;;10.40;99.90;;;;;;4958765;28;20057;-69
2023/04/01 10:33:27;;;;;;;9.47;7.13;;;10.40;99.90;;;;;;4960428;28;20655;-67
2023/04/01 10:36:17;;;;;;;11.03;6.53;;;10.40;99.90;;;;;;4978805;28;20696;-68
2023/04/01 10:38:50;;;;;;;10.07;5.93;;;10.30;99.90;;;;;;4961741;28;20765;-75
2023/04/01 10:41:49;;;;;;;9.37;6.47;;;10.30;99.90;;;;;;4961280;28;20666;-67
2023/04/01 10:44:55;;;;;;;12.20;6.20;;;10.20;99.90;;;;;;4961978;28;20298;-68
2023/04/01 10:47:59;;;;;;;8.57;5.50;;;10.20;99.90;;;;;;4960162;28;20710;-68
2023/04/01 10:51:04;;;;;;;7.70;5.93;;;10.20;99.90;;;;;;4961381;28;20452;-68
2023/04/01 10:53:54;;;;;;;9.77;6.00;;;10.20;99.90;;;;;;4960703;28;20763;-68
2023/04/01 10:56:36;;;;;;;8.07;5.67;;;10.20;99.90;;;;;;4961449;28;20661;-67
2023/04/01 10:59:41;;;;;;;9.00;6.27;;;10.20;99.90;;;;;;4960782;28;20698;-67
2023/04/01 11:02:36;;;;;;;8.77;5.77;;;10.20;99.90;;;;;;4961366;28;20642;-67
2023/04/01 11:05:26;;;;;;;7.60;5.38;;;10.10;99.90;;;;;;4961748;28;20630;-67
2023/04/01 11:08:15;;;;;;;10.23;5.60;;;10.20;99.90;;;;;;4961296;28;20383;-66
2023/04/01 11:11:21;;;;;;;9.67;6.53;;;10.10;99.90;;;;;;4961294;28;20739;-67
2023/04/01 11:14:43;;;;;;;7.40;4.97;;;10.10;99.90;;;;;;4960300;28;20360;-67
2023/04/01 11:17:23;;;;;;;7.80;5.10;;;10.10;99.90;;;;;;4951968;28;20698;-69
2023/04/01 11:20:09;;;;;;;8.27;5.20;;;10.00;99.90;;;;;;4961130;28;20600;-69
2023/04/01 11:22:50;;;;;;;8.40;4.87;;;10.00;99.90;;;;;;4961516;28;20612;-69
2023/04/01 11:29:25;;;;;;;8.83;4.83;;;10.00;99.90;;;;;;4970545;28;20294;-69
2023/04/01 11:32:55;;;;;;;8.87;5.00;;;10.00;99.90;;;;;;4979879;28;20801;-68
2023/04/01 11:39:55;;;;;;;6.93;3.90;;;9.80;99.90;;;;;;4981308;28;20290;-69
2023/04/01 11:43:30;;;;;;;7.33;3.73;;;10.20;99.90;;;;;;4982145;28;20322;-71
2023/04/01 11:51:10;;;;;;;5.20;3.50;;;10.70;99.90;;;;;;4986393;28;20316;-71
2023/04/01 11:54:40;;;;;;;6.10;3.90;;;10.40;99.90;;;;;;4962587;28;20332;-71
2023/04/01 11:57:59;;;;;;;;;;;10.20;99.90;;;;;;4986229;28;20289;-70
2023/04/01 12:05:19;;;;;;;7.72;3.58;;;10.20;99.90;;;;;;4985883;28;20662;-70
2023/04/01 12:12:10;;;;;;;5.60;3.67;;;10.20;99.90;;;;;;4985573;28;20293;-71
2023/04/01 12:15:21;;;;;;;5.90;3.13;;;10.30;99.90;;;;;;4970272;28;20306;-72
2023/04/01 12:25:57;;;;;;;4.47;2.87;;;10.10;99.90;;;;;;4985579;28;20105;-69
2023/04/01 12:29:21;;;;;;;5.50;3.60;;;10.10;99.90;;;;;;4985342;28;20285;-70
2023/04/01 12:32:31;;;;;;;6.53;3.40;;;10.00;99.90;;;;;;4970624;28;20290;-70
2023/04/01 12:35:20;;;;;;;5.13;2.87;;;10.00;99.90;;;;;;4969118;28;20317;-68
2023/04/01 17:43:07;;;;;;;14.57;6.25;;;7.40;99.90;;;;;;5857806;23;20029;31
2023/04/01 17:45:49;;;;;;;13.13;6.23;;;7.40;99.90;;;;;;4788808;29;19931;-67
2023/04/01 17:48:21;;;;;;;9.63;5.47;;;7.40;99.90;;;;;;4788483;30;20289;-67
2023/04/01 17:50:56;;;;;;;13.37;6.00;;;7.40;99.90;;;;;;4788670;30;20446;-66
2023/04/01 17:53:30;;;;;;;13.80;6.20;;;7.40;99.90;;;;;;4788620;30;20293;-66
2023/04/01 17:56:10;;;;;;;10.80;5.82;;;7.30;99.90;;;;;;4788498;30;20070;-66
2023/04/01 17:58:54;;;;;;;11.10;6.03;;;7.30;99.90;;;;;;4788834;30;20055;-66
2023/04/01 18:01:36;;;;;;;11.90;6.13;;;7.30;99.90;;;;;;4788427;30;20303;-66
2023/04/01 18:04:34;;;;;;;11.33;6.43;;;7.30;99.90;;;;;;4788320;30;20107;-68
2023/04/01 18:07:06;;;;;;;17.23;6.60;;;7.30;99.90;;;;;;4788399;30;20780;-68
2023/04/01 18:09:54;;;;;;;12.80;5.80;;;7.30;99.90;;;;;;4788356;30;20706;-68
2023/04/01 18:12:40;;;;;;;9.27;5.10;;;7.30;99.90;;;;;;4788208;30;20349;-68
2023/04/01 18:15:44;;;;;;;11.13;5.83;;;7.30;99.90;;;;;;4788446;30;20641;-67
2023/04/01 18:18:31;;;;;;;9.73;5.80;;;7.30;99.90;;;;;;4787876;29;20786;-66
2023/04/01 18:21:05;;;;;;;11.90;5.67;;;7.20;99.90;;;;;;4788868;30;20346;-66
2023/04/01 18:23:56;;;;;;;11.73;6.43;;;7.20;99.90;;;;;;4788598;30;20303;-66
2023/04/01 18:26:33;;;;;;;11.60;6.37;;;7.20;99.90;;;;;;4788160;30;20281;-68
2023/04/01 18:29:23;;;;;;;13.07;6.67;;;7.10;99.90;;;;;;4771940;30;20304;-65
2023/04/01 18:31:55;;;;;;;11.90;6.87;;;7.10;99.90;;;;;;4788035;30;20297;-65
2023/04/01 18:34:43;;;;;;;13.30;6.80;;;7.10;99.90;;;;;;4787722;30;20926;-66
2023/04/01 18:37:39;;;;;;;10.77;6.20;;;7.00;99.90;;;;;;4787924;29;20785;-66
2023/04/01 18:40:24;;;;;;;13.90;7.00;;;7.10;99.90;;;;;;4786425;29;20307;-66
2023/04/01 18:43:02;;;;;;;11.07;6.13;;;7.00;99.90;;;;;;4788199;30;20565;-65
2023/04/01 18:45:40;;;;;;;10.83;5.67;;;7.00;99.90;;;;;;4787683;30;20055;-66
2023/04/01 18:48:15;;;;;;;12.90;6.53;;;7.00;99.90;;;;;;4788202;30;20642;-66
2023/04/01 18:50:55;;;;;;;11.68;5.70;;;7.10;99.90;;;;;;4772256;30;20801;-66
2023/04/01 18:53:54;;;;;;;14.93;6.17;;;7.00;99.90;;;;;;4788302;30;20490;-67
2023/04/01 18:56:32;;;;;;;10.77;5.80;;;7.00;99.90;;;;;;4791855;30;20734;-68
2023/04/01 18:59:17;;;;;;;10.30;5.60;;;7.00;99.90;;;;;;4791590;30;20372;-66
2023/04/01 19:01:57;;;;;;;11.55;5.40;;;7.10;99.90;;;;;;4791807;30;20292;-66
2023/04/01 19:05:01;;;;;;;9.70;5.13;;;7.10;99.90;;;;;;4791035;30;20520;-67
2023/04/01 19:07:36;;;;;;;12.80;6.07;;;7.10;99.90;;;;;;4718168;30;20315;-67
2023/04/01 19:10:13;;;;;;;14.18;5.93;;;7.00;99.90;;;;;;4718186;30;20350;-66
2023/04/01 19:13:07;;;;;;;12.23;5.80;;;6.90;99.90;;;;;;4762050;30;20062;-66
2023/04/01 19:15:47;;;;;;;12.30;5.43;;;7.00;99.90;;;;;;4791306;30;20302;-66
2023/04/01 19:18:44;;;;;;;11.27;5.63;;;6.90;99.90;;;;;;4791065;30;20694;-65